Weather History for Grove, OK

Change the Weather History Date:

Wednesday, December 19, 2012

  Actual Average (KSLG) Record (KSLG)
Temperature  
Mean Temperature 50 °F -  
Max Temperature 66 °F 43 °F 64 °F (1997)
Min Temperature 33 °F 26 °F 6 °F (2000)
Degree Days  
Heating Degree Days 16    
Moisture  
Dew Point 49 °F    
Average Humidity 81    
Maximum Humidity 100    
Minimum Humidity 52    
Precipitation  
Precipitation 0.00 in - - ()
Sea Level Pressure  
Sea Level Pressure 29.65 in    
Wind  
Wind Speed 6 mph (SE)    
Max Wind Speed 20 mph    
Max Gust Speed 26 mph    
Visibility 10 miles    
Events Rain    
Averages and records for this station are not official NWS values.
T = Trace of Precipitation, MM = Missing Value Source: NWS Daily Summary

Daily Weather History Graph

Daily Weather History Graph

Search for Another Location

Airport:

Trip Planner

Search our weather history database for the weather conditions in past years. The results will help you decide how hot, cold, wet, or windy it might be!

Date:

Astronomy

Dec. 19, 2012 Rise Set
Actual Time 7:26 AM CST 5:06 PM CST
Civil Twilight 6:57 AM CST 5:35 PM CST
Nautical Twilight 6:25 AM CST 6:07 PM CST
Astronomical Twilight 5:53 AM CST 6:38 PM CST
Moon 11:46 AM CST No Moon Set
Length of Visible Light 10h 37m
Length of Day
9h 39m
Waxing Crescent, 45% of the Moon is Illuminated
Dec 19
Waxing Crescent
Dec 19
First Quarter
Dec 28
Full
Jan 4
Last Quarter
Jan 11
New

Hourly Weather History & Observations

Time (CST) Temp. Windchill Dew Point Humidity Pressure Visibility Wind Dir Wind Speed Gust Speed Precip Events Conditions
12:15 AM 33.8 °F - 33.8 °F 100% 29.85 in 10.0 mi Calm Calm - N/A   Clear
12:35 AM 33.8 °F 30.8 °F 33.8 °F 100% 29.84 in 10.0 mi NE 3.5 mph - N/A   Clear
12:55 AM 35.6 °F 32.8 °F 35.6 °F 100% 29.83 in 10.0 mi NE 3.5 mph - N/A   Clear
1:15 AM 37.4 °F - 37.4 °F 100% 29.83 in 10.0 mi Calm Calm - N/A   Clear
1:35 AM 35.6 °F - 35.6 °F 100% 29.82 in 10.0 mi Calm Calm - N/A   Clear
1:55 AM 35.6 °F - 35.6 °F 100% 29.83 in 10.0 mi Calm Calm - N/A   Clear
2:15 AM 35.6 °F 32.8 °F 35.6 °F 100% 29.83 in 10.0 mi East 3.5 mph - N/A   Clear
2:35 AM 35.6 °F - 35.6 °F 100% 29.84 in 10.0 mi Calm Calm - N/A   Clear
2:55 AM 35.6 °F - 35.6 °F 100% 29.83 in 10.0 mi Calm Calm - N/A   Clear
3:15 AM 37.4 °F 34.9 °F 37.4 °F 100% 29.83 in 10.0 mi ENE 3.5 mph - N/A   Clear
3:35 AM 39.2 °F 37.0 °F 37.4 °F 93% 29.81 in 10.0 mi ENE 3.5 mph - N/A   Clear
3:55 AM 39.2 °F 37.0 °F 37.4 °F 93% 29.80 in 10.0 mi ENE 3.5 mph - N/A   Clear
4:15 AM 39.2 °F 35.9 °F 35.6 °F 87% 29.80 in 10.0 mi East 4.6 mph - N/A   Clear
4:35 AM 39.2 °F 35.0 °F 35.6 °F 87% 29.80 in 10.0 mi East 5.8 mph - N/A   Clear
4:55 AM 41.0 °F 38.0 °F 35.6 °F 81% 29.78 in 10.0 mi East 4.6 mph - N/A   Clear
5:15 AM 41.0 °F 39.0 °F 35.6 °F 81% 29.78 in 10.0 mi ENE 3.5 mph - N/A   Clear
5:35 AM 41.0 °F 38.0 °F 35.6 °F 81% 29.77 in 10.0 mi ENE 4.6 mph - N/A   Clear
5:55 AM 42.8 °F 40.1 °F 37.4 °F 81% 29.77 in 10.0 mi East 4.6 mph - N/A   Clear
6:15 AM 42.8 °F 40.1 °F 37.4 °F 81% 29.77 in 10.0 mi East 4.6 mph - N/A   Clear
6:35 AM 42.8 °F - 37.4 °F 81% 29.77 in 10.0 mi Calm Calm - N/A   Clear
6:55 AM 42.8 °F 41.1 °F 37.4 °F 81% 29.75 in 10.0 mi ENE 3.5 mph - N/A   Clear
7:15 AM 42.8 °F 40.1 °F 37.4 °F 81% 29.75 in 10.0 mi East 4.6 mph - N/A   Clear
7:35 AM 44.6 °F 42.2 °F 37.4 °F 76% 29.76 in 10.0 mi East 4.6 mph - N/A   Clear
7:55 AM 44.6 °F 43.1 °F 37.4 °F 76% 29.75 in 10.0 mi East 3.5 mph - N/A   Clear
8:15 AM 46.4 °F 45.2 °F 37.4 °F 71% 29.74 in 10.0 mi ENE 3.5 mph - N/A   Clear
8:35 AM 46.4 °F 45.2 °F 39.2 °F 76% 29.74 in 10.0 mi ENE 3.5 mph - N/A   Scattered Clouds
8:55 AM 50.0 °F - 41.0 °F 71% 29.73 in 10.0 mi East 4.6 mph - N/A   Overcast
9:15 AM 53.6 °F - 42.8 °F 67% 29.73 in 10.0 mi ESE 4.6 mph - N/A   Scattered Clouds
9:35 AM 57.2 °F - 46.4 °F 67% 29.73 in 10.0 mi SE 6.9 mph - N/A   Mostly Cloudy
9:55 AM 59.0 °F - 50.0 °F 72% 29.74 in 10.0 mi SSE 8.1 mph - N/A   Overcast
10:15 AM 60.8 °F - 50.0 °F 68% 29.72 in 10.0 mi SSE 13.8 mph 21.9 mph N/A   Overcast
10:35 AM 60.8 °F - 51.8 °F 72% 29.72 in 10.0 mi SSE 8.1 mph - N/A   Overcast
10:55 AM 60.8 °F - 51.8 °F 72% 29.72 in 10.0 mi South 11.5 mph 16.1 mph N/A   Overcast
11:15 AM 62.6 °F - 53.6 °F 72% 29.71 in 10.0 mi South 17.3 mph 21.9 mph N/A   Overcast
11:35 AM 62.6 °F - 55.4 °F 77% 29.71 in 10.0 mi South 15.0 mph 18.4 mph N/A   Overcast
11:55 AM 62.6 °F - 55.4 °F 77% 29.68 in 10.0 mi South 12.7 mph 19.6 mph N/A   Overcast
12:15 PM 64.4 °F - 55.4 °F 73% 29.66 in 10.0 mi South 15.0 mph 20.7 mph N/A   Overcast
12:35 PM 64.4 °F - 55.4 °F 73% 29.65 in 10.0 mi South 13.8 mph 20.7 mph N/A   Mostly Cloudy
12:55 PM 64.4 °F - 55.4 °F 73% 29.65 in 10.0 mi South 10.4 mph - N/A   Overcast
1:15 PM 64.4 °F - 57.2 °F 77% 29.63 in 10.0 mi South 10.4 mph 17.3 mph N/A   Overcast
1:35 PM 66.2 °F - 57.2 °F 73% 29.61 in 10.0 mi South 12.7 mph 19.6 mph N/A   Overcast
1:55 PM 64.4 °F - 59.0 °F 83% 29.61 in 10.0 mi South 15.0 mph - N/A   Overcast
2:15 PM 66.2 °F - 59.0 °F 78% 29.60 in 10.0 mi SSE 12.7 mph 19.6 mph N/A   Mostly Cloudy
2:35 PM 66.2 °F - 57.2 °F 73% 29.59 in 10.0 mi SSE 9.2 mph - N/A   Mostly Cloudy
2:55 PM 66.2 °F - 57.2 °F 73% 29.58 in 10.0 mi SSE 13.8 mph 20.7 mph N/A   Mostly Cloudy
3:15 PM 64.4 °F - 57.2 °F 77% 29.58 in 10.0 mi SSE 11.5 mph - N/A   Overcast
3:35 PM 64.4 °F - 57.2 °F 77% 29.57 in 10.0 mi SSE 9.2 mph 17.3 mph N/A   Overcast
3:55 PM 64.4 °F - 57.2 °F 77% 29.56 in 10.0 mi SSE 12.7 mph - N/A   Overcast
4:15 PM 64.4 °F - 57.2 °F 77% 29.56 in 10.0 mi SSE 10.4 mph - N/A   Overcast
4:35 PM 64.4 °F - 57.2 °F 77% 29.55 in 10.0 mi SSE 10.4 mph 17.3 mph N/A   Overcast
4:55 PM 64.4 °F - 57.2 °F 77% 29.55 in 10.0 mi SSE 8.1 mph 17.3 mph N/A   Overcast
5:15 PM 64.4 °F - 57.2 °F 77% 29.53 in 10.0 mi SE 12.7 mph 18.4 mph N/A   Overcast
5:35 PM 62.6 °F - 57.2 °F 82% 29.53 in 10.0 mi SSE 11.5 mph 16.1 mph N/A   Scattered Clouds
5:55 PM 62.6 °F - 57.2 °F 82% 29.53 in 10.0 mi SSE 6.9 mph - N/A   Clear
6:15 PM 62.6 °F - 57.2 °F 82% 29.53 in 10.0 mi South 9.2 mph 18.4 mph N/A   Clear
6:35 PM 64.4 °F - 59.0 °F 83% 29.54 in 10.0 mi South 9.2 mph - N/A   Clear
6:55 PM 64.4 °F - 59.0 °F 83% 29.53 in 10.0 mi SSE 10.4 mph 16.1 mph N/A   Scattered Clouds
7:15 PM 64.4 °F - 59.0 °F 83% 29.52 in 10.0 mi South 13.8 mph 19.6 mph N/A   Scattered Clouds
7:35 PM 64.4 °F - 59.0 °F 83% 29.51 in 10.0 mi South 11.5 mph 19.6 mph N/A Rain Light Rain
7:55 PM 64.4 °F - 59.0 °F 83% 29.51 in 10.0 mi South 12.7 mph 21.9 mph N/A Rain Light Rain
8:15 PM 62.6 °F - 60.8 °F 94% 29.50 in 10.0 mi South 10.4 mph 20.7 mph N/A   Scattered Clouds
8:35 PM 62.6 °F - 59.0 °F 88% 29.48 in 10.0 mi SSE 10.4 mph - N/A   Scattered Clouds
8:55 PM 62.6 °F - 60.8 °F 94% 29.47 in 10.0 mi South 11.5 mph 16.1 mph N/A   Clear
9:15 PM 64.4 °F - 60.8 °F 88% 29.45 in 10.0 mi South 12.7 mph 18.4 mph N/A   Scattered Clouds
9:35 PM 64.4 °F - 59.0 °F 83% 29.44 in 10.0 mi South 12.7 mph - N/A   Mostly Cloudy
9:55 PM 64.4 °F - 59.0 °F 83% 29.43 in 10.0 mi South 11.5 mph - N/A   Overcast
10:15 PM 62.6 °F - 59.0 °F 88% 29.43 in 10.0 mi South 10.4 mph - N/A   Overcast
10:35 PM 64.4 °F - 59.0 °F 83% 29.43 in 10.0 mi SSW 11.5 mph 19.6 mph N/A   Overcast
10:55 PM 64.4 °F - 59.0 °F 83% 29.43 in 10.0 mi SSW 9.2 mph - N/A   Overcast
11:15 PM 64.4 °F - 55.4 °F 73% 29.44 in 7.0 mi SW 11.5 mph - N/A   Overcast
11:35 PM 64.4 °F - 50.0 °F 59% 29.44 in 7.0 mi WSW 19.6 mph 26.5 mph N/A   Overcast
11:55 PM 62.6 °F - 44.6 °F 52% 29.45 in 7.0 mi WSW 15.0 mph 21.9 mph N/A   Mostly Cloudy